SGE200F EDSB-EDFH
Flight info
| Callsign | SGE200F |
|---|---|
| Flight time | 0h 37m |
| Altitude | 28000 |
| Route | STR1Z/21 STR DCT PHALO DCT UFONE DCT GTQ DCT MAKOT/N0388F270 DCT SARRI/N0384F260 DCT TOMPI DCT MAPIG DCT TOLEY DCT IDARO/N0377F250 DCT TIGPI DCT OLIVI OLIVI4B |
| Aircraft | A320/M-SDE3FGHIRWY/LB1 |
Departure
| Time | 2026-05-03 20:15 |
|---|---|
| Airport | Karlsruhe Baden-Baden Airport (EDSB) |
Arrival
| Time | 2026-05-03 20:52 |
|---|---|
| Airport | Frankfurt-Hahn Airport (EDFH) |
| Time | Latitude | Longitude | Altitude | Speed | Heading |
|---|---|---|---|---|---|
| 2026-05-03 20:15 | 48.62815 | 7.92610 | 8426 ft | 286 kts | 214° |
| 2026-05-03 20:15 | 48.61148 | 7.90970 | 9332 ft | 287 kts | 214° |
| 2026-05-03 20:15 | 48.59466 | 7.89316 | 10154 ft | 290 kts | 213° |
| 2026-05-03 20:15 | 48.57726 | 7.87591 | 10534 ft | 310 kts | 213° |
| 2026-05-03 20:16 | 48.55871 | 7.85738 | 10917 ft | 326 kts | 213° |
| 2026-05-03 20:16 | 48.53970 | 7.83832 | 11603 ft | 330 kts | 213° |
| 2026-05-03 20:16 | 48.52053 | 7.81906 | 12349 ft | 332 kts | 213° |
| 2026-05-03 20:16 | 48.50126 | 7.79978 | 13063 ft | 335 kts | 213° |
| 2026-05-03 20:17 | 48.48191 | 7.77997 | 13723 ft | 338 kts | 218° |
| 2026-05-03 20:17 | 48.46641 | 7.75333 | 14338 ft | 343 kts | 240° |
| 2026-05-03 20:17 | 48.45876 | 7.71916 | 14940 ft | 349 kts | 262° |
| 2026-05-03 20:17 | 48.46055 | 7.68271 | 15543 ft | 355 kts | 285° |
| 2026-05-03 20:18 | 48.47150 | 7.64913 | 16142 ft | 360 kts | 301° |
| 2026-05-03 20:18 | 48.48524 | 7.61746 | 16757 ft | 362 kts | 302° |
| 2026-05-03 20:18 | 48.49918 | 7.58564 | 17356 ft | 365 kts | 302° |
| 2026-05-03 20:18 | 48.51482 | 7.55525 | 17933 ft | 369 kts | 309° |
| 2026-05-03 20:19 | 48.53181 | 7.52613 | 18510 ft | 371 kts | 309° |
| 2026-05-03 20:19 | 48.54887 | 7.49670 | 19064 ft | 374 kts | 309° |
| 2026-05-03 20:19 | 48.56583 | 7.46727 | 19619 ft | 378 kts | 309° |
| 2026-05-03 20:19 | 48.58312 | 7.43719 | 20160 ft | 381 kts | 309° |
| 2026-05-03 20:20 | 48.60054 | 7.40683 | 20678 ft | 384 kts | 309° |
| 2026-05-03 20:20 | 48.61809 | 7.37618 | 21163 ft | 387 kts | 309° |
| 2026-05-03 20:20 | 48.63579 | 7.34523 | 21633 ft | 391 kts | 309° |
| 2026-05-03 20:20 | 48.65361 | 7.31398 | 22086 ft | 394 kts | 309° |
| 2026-05-03 20:21 | 48.67153 | 7.28246 | 22522 ft | 397 kts | 309° |
| 2026-05-03 20:21 | 48.68961 | 7.25067 | 22976 ft | 400 kts | 309° |
| 2026-05-03 20:21 | 48.70780 | 7.21865 | 23418 ft | 403 kts | 308° |
| 2026-05-03 20:21 | 48.72613 | 7.18633 | 23845 ft | 406 kts | 308° |
| 2026-05-03 20:22 | 48.74460 | 7.15373 | 24261 ft | 409 kts | 308° |
| 2026-05-03 20:22 | 48.76316 | 7.12092 | 24675 ft | 412 kts | 308° |
| 2026-05-03 20:22 | 48.78188 | 7.08789 | 25082 ft | 414 kts | 308° |
| 2026-05-03 20:22 | 48.80061 | 7.05458 | 25485 ft | 416 kts | 308° |
| 2026-05-03 20:23 | 48.81934 | 7.02090 | 25872 ft | 419 kts | 308° |
| 2026-05-03 20:23 | 48.83810 | 6.98694 | 26269 ft | 421 kts | 308° |
| 2026-05-03 20:23 | 48.85691 | 6.95271 | 26646 ft | 423 kts | 307° |
| 2026-05-03 20:23 | 48.87580 | 6.91828 | 27023 ft | 425 kts | 307° |
| 2026-05-03 20:24 | 48.89478 | 6.88362 | 27385 ft | 427 kts | 307° |
| 2026-05-03 20:24 | 48.91393 | 6.84892 | 27728 ft | 430 kts | 309° |
| 2026-05-03 20:24 | 48.93672 | 6.81915 | 27967 ft | 437 kts | 327° |
| 2026-05-03 20:24 | 48.96441 | 6.80137 | 28019 ft | 429 kts | 345° |
| 2026-05-03 20:25 | 48.99392 | 6.79731 | 28016 ft | 427 kts | 3° |
| 2026-05-03 20:25 | 49.02253 | 6.80638 | 28020 ft | 427 kts | 21° |
| 2026-05-03 20:25 | 49.04845 | 6.82812 | 28015 ft | 427 kts | 39° |
| 2026-05-03 20:26 | 49.08912 | 6.89382 | 28026 ft | 427 kts | 49° |
| 2026-05-03 20:26 | 49.12823 | 6.96230 | 28029 ft | 435 kts | 49° |
| 2026-05-03 20:27 | 49.16864 | 7.03315 | 28030 ft | 446 kts | 49° |
| 2026-05-03 20:27 | 49.19014 | 7.06734 | 28026 ft | 447 kts | 38° |
| 2026-05-03 20:27 | 49.21727 | 7.08980 | 28026 ft | 445 kts | 17° |
| 2026-05-03 20:27 | 49.24762 | 7.09847 | 28025 ft | 444 kts | 1° |
| 2026-05-03 20:28 | 49.27829 | 7.09601 | 28027 ft | 441 kts | 348° |
| 2026-05-03 20:28 | 49.33830 | 7.07631 | 28026 ft | 442 kts | 346° |
| 2026-05-03 20:29 | 49.39827 | 7.05560 | 28024 ft | 442 kts | 345° |
| 2026-05-03 20:29 | 49.45811 | 7.03563 | 27869 ft | 435 kts | 346° |
| 2026-05-03 20:29 | 49.48748 | 7.02628 | 27586 ft | 426 kts | 346° |
| 2026-05-03 20:30 | 49.51602 | 7.01726 | 27451 ft | 413 kts | 346° |
| 2026-05-03 20:30 | 49.54378 | 7.00847 | 27160 ft | 401 kts | 346° |
| 2026-05-03 20:30 | 49.57087 | 6.99983 | 26488 ft | 395 kts | 346° |
| 2026-05-03 20:30 | 49.59760 | 6.99123 | 25763 ft | 390 kts | 346° |
| 2026-05-03 20:31 | 49.62369 | 6.98278 | 25038 ft | 386 kts | 346° |
| 2026-05-03 20:31 | 49.64987 | 6.97425 | 24295 ft | 382 kts | 346° |
| 2026-05-03 20:31 | 49.67620 | 6.96602 | 22937 ft | 394 kts | 350° |
| 2026-05-03 20:31 | 49.70408 | 6.96456 | 22138 ft | 404 kts | 4° |
| 2026-05-03 20:32 | 49.73140 | 6.97205 | 21882 ft | 396 kts | 15° |
| 2026-05-03 20:32 | 49.75701 | 6.98638 | 21632 ft | 387 kts | 21° |
| 2026-05-03 20:32 | 49.78183 | 7.00152 | 21378 ft | 379 kts | 21° |
| 2026-05-03 20:32 | 49.80620 | 7.01654 | 20974 ft | 376 kts | 21° |
| 2026-05-03 20:33 | 49.83041 | 7.03155 | 20531 ft | 374 kts | 21° |
| 2026-05-03 20:33 | 49.85444 | 7.04647 | 20209 ft | 368 kts | 21° |
| 2026-05-03 20:33 | 49.87784 | 7.06108 | 20072 ft | 357 kts | 21° |
| 2026-05-03 20:33 | 49.90055 | 7.07531 | 19952 ft | 347 kts | 21° |
| 2026-05-03 20:34 | 49.92240 | 7.08986 | 19824 ft | 338 kts | 29° |
| 2026-05-03 20:34 | 49.94062 | 7.11195 | 19685 ft | 330 kts | 49° |
| 2026-05-03 20:34 | 49.95282 | 7.14154 | 19432 ft | 324 kts | 70° |
| 2026-05-03 20:34 | 49.95786 | 7.17505 | 19175 ft | 314 kts | 90° |
| 2026-05-03 20:35 | 49.95564 | 7.20836 | 18994 ft | 310 kts | 109° |
| 2026-05-03 20:35 | 49.94687 | 7.23860 | 18970 ft | 306 kts | 127° |
| 2026-05-03 20:35 | 49.93288 | 7.26299 | 18982 ft | 301 kts | 145° |
| 2026-05-03 20:35 | 49.91504 | 7.27929 | 18978 ft | 296 kts | 162° |
| 2026-05-03 20:36 | 49.89515 | 7.28629 | 18980 ft | 292 kts | 180° |
| 2026-05-03 20:36 | 49.87507 | 7.28385 | 18980 ft | 289 kts | 196° |
| 2026-05-03 20:36 | 49.85586 | 7.27486 | 18973 ft | 288 kts | 203° |
| 2026-05-03 20:36 | 49.83898 | 7.25874 | 18982 ft | 286 kts | 223° |
| 2026-05-03 20:37 | 49.82626 | 7.23520 | 18981 ft | 286 kts | 238° |
| 2026-05-03 20:37 | 49.81821 | 7.20698 | 18983 ft | 288 kts | 253° |
| 2026-05-03 20:37 | 49.81542 | 7.17629 | 18978 ft | 290 kts | 269° |
| 2026-05-03 20:37 | 49.81843 | 7.14570 | 18971 ft | 294 kts | 285° |
| 2026-05-03 20:38 | 49.82749 | 7.11711 | 18974 ft | 299 kts | 303° |
| 2026-05-03 20:38 | 49.83674 | 7.10061 | 18976 ft | 303 kts | 315° |
| 2026-05-03 20:38 | 49.86074 | 7.07823 | 18973 ft | 309 kts | 339° |
| 2026-05-03 20:38 | 49.88200 | 7.07247 | 18976 ft | 314 kts | 358° |
| 2026-05-03 20:39 | 49.90368 | 7.07764 | 18939 ft | 322 kts | 19° |
| 2026-05-03 20:39 | 49.92240 | 7.09682 | 18661 ft | 325 kts | 51° |
| 2026-05-03 20:39 | 49.93043 | 7.11698 | 18567 ft | 327 kts | 71° |
| 2026-05-03 20:39 | 49.93214 | 7.16234 | 18162 ft | 319 kts | 111° |
| 2026-05-03 20:40 | 49.92128 | 7.19139 | 17763 ft | 311 kts | 136° |
| 2026-05-03 20:40 | 49.90648 | 7.21592 | 17358 ft | 312 kts | 136° |
| 2026-05-03 20:40 | 49.89160 | 7.24043 | 16953 ft | 312 kts | 136° |
| 2026-05-03 20:40 | 49.87665 | 7.26498 | 16560 ft | 313 kts | 136° |
| 2026-05-03 20:41 | 49.86234 | 7.29056 | 16162 ft | 317 kts | 124° |
| 2026-05-03 20:41 | 49.85409 | 7.32242 | 15744 ft | 322 kts | 109° |
| 2026-05-03 20:41 | 49.84669 | 7.35521 | 15318 ft | 323 kts | 114° |
| 2026-05-03 20:41 | 49.83807 | 7.38731 | 14858 ft | 324 kts | 116° |
| 2026-05-03 20:42 | 49.82899 | 7.41933 | 14422 ft | 325 kts | 117° |
| 2026-05-03 20:42 | 49.82291 | 7.44059 | 14125 ft | 326 kts | 116° |
| 2026-05-03 20:42 | 49.81476 | 7.48581 | 13526 ft | 332 kts | 93° |
| 2026-05-03 20:42 | 49.81864 | 7.52111 | 13052 ft | 337 kts | 69° |
| 2026-05-03 20:43 | 49.83150 | 7.55131 | 12577 ft | 339 kts | 44° |
| 2026-05-03 20:43 | 49.85106 | 7.57142 | 12077 ft | 339 kts | 20° |
| 2026-05-03 20:43 | 49.86613 | 7.57757 | 11749 ft | 338 kts | 5° |
| 2026-05-03 20:43 | 49.88939 | 7.57567 | 11288 ft | 334 kts | 347° |
| 2026-05-03 20:44 | 49.91936 | 7.56743 | 11121 ft | 319 kts | 348° |
| 2026-05-03 20:44 | 49.93372 | 7.56347 | 11016 ft | 312 kts | 348° |
| 2026-05-03 20:44 | 49.95488 | 7.55763 | 10460 ft | 307 kts | 348° |
| 2026-05-03 20:44 | 49.98281 | 7.54990 | 9650 ft | 302 kts | 348° |
| 2026-05-03 20:45 | 50.00344 | 7.54422 | 9045 ft | 299 kts | 348° |
| 2026-05-03 20:45 | 50.01695 | 7.54053 | 8686 ft | 296 kts | 348° |
| 2026-05-03 20:45 | 50.04301 | 7.53392 | 8399 ft | 276 kts | 355° |
| 2026-05-03 20:45 | 50.05587 | 7.53440 | 8298 ft | 272 kts | 7° |
| 2026-05-03 20:46 | 50.07912 | 7.54665 | 8123 ft | 264 kts | 30° |
| 2026-05-03 20:46 | 50.08950 | 7.55697 | 8038 ft | 259 kts | 32° |
| 2026-05-03 20:46 | 50.10545 | 7.56813 | 7913 ft | 247 kts | 4° |
| 2026-05-03 20:46 | 50.12620 | 7.55925 | 7581 ft | 237 kts | 314° |
| 2026-05-03 20:47 | 50.13602 | 7.53902 | 7209 ft | 235 kts | 299° |
| 2026-05-03 20:47 | 50.14192 | 7.52444 | 6967 ft | 236 kts | 297° |
| 2026-05-03 20:47 | 50.14761 | 7.50051 | 6434 ft | 241 kts | 274° |
| 2026-05-03 20:47 | 50.14364 | 7.46666 | 5898 ft | 243 kts | 240° |
| 2026-05-03 20:48 | 50.13707 | 7.45260 | 5708 ft | 243 kts | 225° |
| 2026-05-03 20:48 | 50.12353 | 7.43709 | 5397 ft | 242 kts | 213° |
| 2026-05-03 20:48 | 50.10934 | 7.42310 | 5089 ft | 241 kts | 213° |
| 2026-05-03 20:48 | 50.09513 | 7.40905 | 4767 ft | 242 kts | 214° |
| 2026-05-03 20:49 | 50.08109 | 7.39510 | 4447 ft | 235 kts | 214° |
| 2026-05-03 20:49 | 50.06765 | 7.38173 | 4148 ft | 223 kts | 214° |
| 2026-05-03 20:49 | 50.05493 | 7.36912 | 3868 ft | 210 kts | 214° |
| 2026-05-03 20:49 | 50.04303 | 7.35731 | 3599 ft | 194 kts | 214° |
| 2026-05-03 20:50 | 50.03211 | 7.34648 | 3354 ft | 179 kts | 214° |
| 2026-05-03 20:50 | 50.02228 | 7.33675 | 3147 ft | 155 kts | 214° |
| 2026-05-03 20:50 | 50.01358 | 7.32813 | 2926 ft | 144 kts | 213° |
| 2026-05-03 20:50 | 50.00516 | 7.31978 | 2736 ft | 143 kts | 212° |
| 2026-05-03 20:51 | 49.99675 | 7.31143 | 2531 ft | 144 kts | 212° |
| 2026-05-03 20:51 | 49.98831 | 7.30310 | 2345 ft | 143 kts | 212° |
| 2026-05-03 20:51 | 49.97989 | 7.29477 | 2130 ft | 143 kts | 213° |
| 2026-05-03 20:51 | 49.97160 | 7.28632 | 1945 ft | 142 kts | 213° |
| 2026-05-03 20:52 | 49.96324 | 7.27814 | 1746 ft | 142 kts | 212° |
| 2026-05-03 20:52 | 49.95493 | 7.26999 | 1606 ft | 138 kts | 212° |
| 2026-05-03 20:52 | 49.94880 | 7.26396 | 1623 ft | 59 kts | 212° |
| 2026-05-03 20:52 | 49.94691 | 7.26205 | 1615 ft | 23 kts | 214° |
| 2026-05-03 20:53 | 49.94582 | 7.26142 | 1620 ft | 15 kts | 160° |
| 2026-05-03 20:53 | 49.94533 | 7.26218 | 1622 ft | 9 kts | 125° |
| 2026-05-03 20:53 | 49.94497 | 7.26312 | 1623 ft | 11 kts | 121° |
| 2026-05-03 20:53 | 49.94465 | 7.26390 | 1631 ft | 8 kts | 123° |
| 2026-05-03 20:54 | 49.94435 | 7.26466 | 1627 ft | 9 kts | 112° |
| 2026-05-03 20:54 | 49.94561 | 7.26634 | 1619 ft | 15 kts | 26° |
| 2026-05-03 20:54 | 49.94646 | 7.26643 | 1620 ft | 12 kts | 25° |
| 2026-05-03 20:55 | 49.94719 | 7.26715 | 1617 ft | 11 kts | 46° |
| 2026-05-03 20:55 | 49.94710 | 7.26790 | 1621 ft | 5 kts | 161° |
| 2026-05-03 20:55 | 49.94677 | 7.26770 | 1621 ft | 3 kts | 212° |
| 2026-05-03 20:55 | 49.94664 | 7.26757 | 1618 ft | 0 kts | 211° |